createdAt,value
2023-01-30T00:00:58.102Z,77.39
2023-01-30T00:11:05.318Z,78.43
2023-01-30T00:21:09.760Z,76.31
2023-01-30T00:31:11.975Z,77.12
2023-01-30T00:41:15.449Z,77.27
2023-01-30T00:51:17.665Z,77.09
2023-01-30T01:01:19.861Z,76.94
2023-01-30T01:11:25.074Z,74.95
2023-01-30T01:21:27.451Z,73.14
2023-01-30T01:31:29.704Z,72.90
2023-01-30T01:41:32.046Z,73.74
2023-01-30T01:51:42.634Z,73.15
2023-01-30T02:01:44.906Z,72.97
2023-01-30T02:11:52.760Z,72.22
2023-01-30T02:22:13.478Z,72.05
2023-01-30T02:32:30.607Z,70.60
2023-01-30T02:42:32.782Z,70.60
2023-01-30T02:52:36.505Z,71.05
2023-01-30T03:03:09.901Z,71.79
2023-01-30T06:05:10.212Z,81.67
2023-01-30T06:15:12.645Z,78.59
2023-01-30T06:25:15.108Z,76.61
2023-01-30T06:35:17.685Z,76.78
2023-01-30T06:45:20.488Z,76.40
2023-01-30T06:55:25.715Z,76.14
2023-01-30T07:05:29.107Z,76.00
2023-01-30T07:15:32.470Z,76.13
2023-01-30T07:25:34.797Z,77.49
2023-01-30T07:35:37.902Z,75.58
2023-01-30T07:45:42.439Z,73.97
2023-01-30T07:55:44.989Z,71.42
2023-01-30T08:05:47.357Z,73.00
2023-01-30T08:15:50.144Z,74.63
2023-01-30T08:25:57.002Z,77.52
2023-01-30T08:35:59.339Z,77.80
2023-01-30T08:46:01.673Z,82.03
2023-01-30T08:56:04.058Z,81.62
2023-01-30T09:06:06.310Z,82.24
2023-01-30T09:16:08.668Z,81.00
2023-01-30T09:26:10.903Z,80.48
2023-01-30T09:36:13.197Z,80.35
2023-01-30T09:46:33.162Z,82.65
2023-01-30T09:56:35.434Z,80.06
2023-01-30T10:06:51.254Z,80.65
2023-01-30T10:17:12.084Z,80.30
2023-01-30T10:27:17.331Z,76.68
2023-01-30T10:37:29.641Z,76.25
2023-01-30T10:47:47.903Z,73.98
2023-01-30T10:58:01.696Z,74.17
2023-01-30T11:08:04.143Z,75.14
2023-01-30T11:18:54.838Z,73.78
2023-01-30T11:28:38.885Z,74.15
2023-01-30T11:39:12.915Z,77.30
2023-01-30T11:49:46.872Z,71.86
2023-01-30T11:59:58.185Z,71.41
2023-01-30T12:10:01.817Z,72.10
2023-01-30T12:20:13.076Z,71.87
2023-01-30T12:30:29.860Z,69.14
2023-01-30T12:40:39.576Z,69.41
2023-01-30T12:51:00.511Z,67.45
2023-01-30T13:01:09.048Z,68.92
2023-01-30T13:11:17.942Z,70.45
2023-01-30T13:21:31.453Z,70.11
2023-01-30T13:31:39.456Z,68.20
2023-01-30T13:41:49.313Z,67.66
2023-01-30T13:51:58.150Z,69.30
2023-01-30T14:02:02.306Z,69.88
2023-01-30T14:12:06.866Z,68.77
2023-01-30T14:22:23.087Z,69.06
2023-01-30T14:32:52.470Z,69.63
2023-01-30T14:43:12.720Z,69.27
2023-01-30T14:53:15.459Z,69.25
2023-01-30T15:03:20.517Z,70.07
2023-01-30T15:13:34.912Z,69.75
2023-01-30T15:23:52.407Z,71.04
2023-01-30T15:33:56.954Z,71.29
2023-01-30T15:44:23.062Z,71.35
2023-01-30T15:54:25.338Z,71.92
2023-01-30T16:04:29.148Z,71.72
2023-01-30T16:14:31.386Z,71.75
2023-01-30T16:24:37.304Z,72.12
2023-01-30T16:34:39.938Z,71.67
2023-01-30T16:44:42.138Z,75.41
2023-01-30T17:05:43.175Z,80.54
2023-01-30T17:15:45.674Z,81.58
2023-01-30T17:25:49.544Z,80.92
2023-01-30T17:35:52.050Z,79.81
2023-01-30T17:45:56.735Z,78.81
2023-01-30T17:55:59.977Z,79.54
2023-01-30T18:06:02.333Z,78.83
2023-01-30T18:16:05.259Z,77.87
2023-01-30T18:26:07.554Z,77.23
2023-01-30T18:36:11.807Z,80.06
2023-01-30T18:46:16.170Z,79.06
2023-01-30T18:56:21.295Z,78.39
2023-01-30T19:06:24.573Z,81.43
2023-01-30T19:16:29.066Z,83.84
2023-01-30T19:26:32.000Z,84.94
2023-01-30T19:36:36.292Z,85.67
2023-01-30T19:46:38.775Z,85.59
2023-01-30T19:56:42.696Z,85.73
2023-01-30T20:06:45.310Z,85.34
2023-01-30T20:16:47.603Z,84.06
2023-01-30T20:26:49.986Z,84.57
2023-01-30T20:36:52.475Z,83.23
2023-01-30T20:46:56.760Z,82.91
2023-01-30T20:56:59.114Z,81.88
2023-01-30T21:07:01.730Z,81.67
2023-01-30T21:17:04.067Z,80.45
2023-01-30T21:27:06.322Z,78.22
2023-01-30T21:40:31.125Z,78.16
2023-01-30T21:50:34.008Z,76.55
2023-01-30T22:00:36.813Z,75.34
2023-01-30T22:10:39.219Z,76.98
2023-01-30T22:20:41.470Z,76.52
2023-01-30T22:30:43.692Z,75.31
2023-01-30T22:40:46.728Z,75.06
2023-01-30T22:51:03.116Z,74.04
2023-01-30T23:01:11.920Z,74.58
2023-01-30T23:11:18.577Z,73.78
2023-01-30T23:21:29.791Z,72.74
2023-01-30T23:31:32.162Z,72.97
2023-01-30T23:41:36.600Z,73.57
2023-01-30T23:51:40.485Z,74.11
